sensor_id;sensor_type;location;lat;lon;timestamp;pressure;altitude;pressure_sealevel;temperature
20092;BMP180;10205;49.678;6.560;2024-01-16T00:00:34;99442.00;;;5.40
20092;BMP180;10205;49.678;6.560;2024-01-16T00:03:01;99440.00;;;5.40
20092;BMP180;10205;49.678;6.560;2024-01-16T00:05:30;99433.00;;;5.40
20092;BMP180;10205;49.678;6.560;2024-01-16T00:07:57;99426.00;;;5.40
20092;BMP180;10205;49.678;6.560;2024-01-16T00:10:25;99433.00;;;5.40
20092;BMP180;10205;49.678;6.560;2024-01-16T00:12:52;99429.00;;;5.40
20092;BMP180;10205;49.678;6.560;2024-01-16T00:15:20;99431.00;;;5.40
20092;BMP180;10205;49.678;6.560;2024-01-16T00:17:47;99423.00;;;5.40
20092;BMP180;10205;49.678;6.560;2024-01-16T00:20:15;99422.00;;;5.40
20092;BMP180;10205;49.678;6.560;2024-01-16T00:22:43;99442.00;;;5.40
20092;BMP180;10205;49.678;6.560;2024-01-16T00:25:10;99430.00;;;5.30
20092;BMP180;10205;49.678;6.560;2024-01-16T00:27:37;99430.00;;;5.30
20092;BMP180;10205;49.678;6.560;2024-01-16T00:30:06;99433.00;;;5.30
20092;BMP180;10205;49.678;6.560;2024-01-16T00:32:34;99437.00;;;5.30
20092;BMP180;10205;49.678;6.560;2024-01-16T00:35:02;99445.00;;;5.30
20092;BMP180;10205;49.678;6.560;2024-01-16T00:37:29;99436.00;;;5.30
20092;BMP180;10205;49.678;6.560;2024-01-16T00:39:58;99440.00;;;5.20
20092;BMP180;10205;49.678;6.560;2024-01-16T00:42:25;99449.00;;;5.20
20092;BMP180;10205;49.678;6.560;2024-01-16T00:44:52;99444.00;;;5.20
20092;BMP180;10205;49.678;6.560;2024-01-16T00:47:19;99442.00;;;5.20
20092;BMP180;10205;49.678;6.560;2024-01-16T00:49:46;99471.00;;;5.30
20092;BMP180;10205;49.678;6.560;2024-01-16T00:52:13;99456.00;;;5.20
20092;BMP180;10205;49.678;6.560;2024-01-16T00:54:40;99456.00;;;5.30
20092;BMP180;10205;49.678;6.560;2024-01-16T00:57:09;99463.00;;;5.20
20092;BMP180;10205;49.678;6.560;2024-01-16T00:59:37;99454.00;;;5.30
20092;BMP180;10205;49.678;6.560;2024-01-16T01:02:04;99460.00;;;5.30
20092;BMP180;10205;49.678;6.560;2024-01-16T01:04:33;99457.00;;;5.30
20092;BMP180;10205;49.678;6.560;2024-01-16T01:07:00;99474.00;;;5.30
20092;BMP180;10205;49.678;6.560;2024-01-16T01:09:27;99463.00;;;5.30
20092;BMP180;10205;49.678;6.560;2024-01-16T01:11:54;99442.00;;;5.30
20092;BMP180;10205;49.678;6.560;2024-01-16T01:14:23;99474.00;;;5.40
20092;BMP180;10205;49.678;6.560;2024-01-16T01:16:51;99476.00;;;5.30
20092;BMP180;10205;49.678;6.560;2024-01-16T01:19:18;99473.00;;;5.30
20092;BMP180;10205;49.678;6.560;2024-01-16T01:21:45;99465.00;;;5.30
20092;BMP180;10205;49.678;6.560;2024-01-16T01:24:13;99466.00;;;5.30
20092;BMP180;10205;49.678;6.560;2024-01-16T01:26:43;99470.00;;;5.30
20092;BMP180;10205;49.678;6.560;2024-01-16T01:29:10;99479.00;;;5.30
20092;BMP180;10205;49.678;6.560;2024-01-16T01:31:38;99475.00;;;5.30
20092;BMP180;10205;49.678;6.560;2024-01-16T01:34:05;99475.00;;;5.30
20092;BMP180;10205;49.678;6.560;2024-01-16T01:36:33;99482.00;;;5.30
20092;BMP180;10205;49.678;6.560;2024-01-16T01:39:00;99490.00;;;5.30
20092;BMP180;10205;49.678;6.560;2024-01-16T01:41:27;99484.00;;;5.30
20092;BMP180;10205;49.678;6.560;2024-01-16T01:43:54;99483.00;;;5.30
20092;BMP180;10205;49.678;6.560;2024-01-16T01:46:22;99486.00;;;5.30
20092;BMP180;10205;49.678;6.560;2024-01-16T01:48:51;99484.00;;;5.30
20092;BMP180;10205;49.678;6.560;2024-01-16T01:51:19;99486.00;;;5.30
20092;BMP180;10205;49.678;6.560;2024-01-16T01:53:49;99475.00;;;5.20
20092;BMP180;10205;49.678;6.560;2024-01-16T01:56:19;99472.00;;;5.20
20092;BMP180;10205;49.678;6.560;2024-01-16T01:58:48;99477.00;;;5.20
20092;BMP180;10205;49.678;6.560;2024-01-16T02:01:19;99482.00;;;5.20
20092;BMP180;10205;49.678;6.560;2024-01-16T02:03:51;99481.00;;;5.20
20092;BMP180;10205;49.678;6.560;2024-01-16T02:06:19;99473.00;;;5.20
20092;BMP180;10205;49.678;6.560;2024-01-16T02:08:46;99489.00;;;5.20
20092;BMP180;10205;49.678;6.560;2024-01-16T02:11:13;99482.00;;;5.20
20092;BMP180;10205;49.678;6.560;2024-01-16T02:13:40;99489.00;;;5.20
20092;BMP180;10205;49.678;6.560;2024-01-16T02:16:18;99507.00;;;5.20
20092;BMP180;10205;49.678;6.560;2024-01-16T02:18:45;99492.00;;;5.20
20092;BMP180;10205;49.678;6.560;2024-01-16T02:21:18;99476.00;;;5.20
20092;BMP180;10205;49.678;6.560;2024-01-16T02:23:47;99486.00;;;5.20
20092;BMP180;10205;49.678;6.560;2024-01-16T02:26:15;99497.00;;;5.20
20092;BMP180;10205;49.678;6.560;2024-01-16T02:28:42;99483.00;;;5.20
20092;BMP180;10205;49.678;6.560;2024-01-16T02:31:09;99478.00;;;5.20
20092;BMP180;10205;49.678;6.560;2024-01-16T02:33:37;99473.00;;;5.20
20092;BMP180;10205;49.678;6.560;2024-01-16T02:36:04;99474.00;;;5.20
20092;BMP180;10205;49.678;6.560;2024-01-16T02:38:31;99476.00;;;5.20
20092;BMP180;10205;49.678;6.560;2024-01-16T02:40:59;99471.00;;;5.20
20092;BMP180;10205;49.678;6.560;2024-01-16T02:43:27;99469.00;;;5.10
20092;BMP180;10205;49.678;6.560;2024-01-16T02:45:54;99469.00;;;5.10
20092;BMP180;10205;49.678;6.560;2024-01-16T02:48:21;99470.00;;;5.10
20092;BMP180;10205;49.678;6.560;2024-01-16T02:50:48;99463.00;;;5.10
20092;BMP180;10205;49.678;6.560;2024-01-16T02:53:15;99464.00;;;5.10
20092;BMP180;10205;49.678;6.560;2024-01-16T02:55:42;99457.00;;;5.10
20092;BMP180;10205;49.678;6.560;2024-01-16T02:58:10;99448.00;;;5.10
20092;BMP180;10205;49.678;6.560;2024-01-16T03:00:37;99457.00;;;5.10
20092;BMP180;10205;49.678;6.560;2024-01-16T03:03:05;99459.00;;;5.10
20092;BMP180;10205;49.678;6.560;2024-01-16T03:05:32;99458.00;;;5.10
20092;BMP180;10205;49.678;6.560;2024-01-16T03:07:59;99475.00;;;5.10
20092;BMP180;10205;49.678;6.560;2024-01-16T03:10:28;99459.00;;;5.10
20092;BMP180;10205;49.678;6.560;2024-01-16T03:12:55;99461.00;;;5.10
20092;BMP180;10205;49.678;6.560;2024-01-16T03:15:24;99461.00;;;5.10
20092;BMP180;10205;49.678;6.560;2024-01-16T03:17:51;99461.00;;;5.10
20092;BMP180;10205;49.678;6.560;2024-01-16T03:20:18;99473.00;;;5.10
20092;BMP180;10205;49.678;6.560;2024-01-16T03:22:45;99477.00;;;5.10
20092;BMP180;10205;49.678;6.560;2024-01-16T03:25:13;99472.00;;;5.10
20092;BMP180;10205;49.678;6.560;2024-01-16T03:27:40;99468.00;;;5.10
20092;BMP180;10205;49.678;6.560;2024-01-16T03:30:08;99465.00;;;5.00
20092;BMP180;10205;49.678;6.560;2024-01-16T03:32:37;99453.00;;;5.10
20092;BMP180;10205;49.678;6.560;2024-01-16T03:35:06;99438.00;;;5.10
20092;BMP180;10205;49.678;6.560;2024-01-16T03:37:33;99454.00;;;5.10
20092;BMP180;10205;49.678;6.560;2024-01-16T03:40:01;99460.00;;;5.10
20092;BMP180;10205;49.678;6.560;2024-01-16T03:42:28;99453.00;;;5.10
20092;BMP180;10205;49.678;6.560;2024-01-16T03:44:55;99448.00;;;5.20
20092;BMP180;10205;49.678;6.560;2024-01-16T03:47:22;99465.00;;;5.10
20092;BMP180;10205;49.678;6.560;2024-01-16T03:49:51;99450.00;;;5.20
20092;BMP180;10205;49.678;6.560;2024-01-16T03:52:18;99442.00;;;5.10
20092;BMP180;10205;49.678;6.560;2024-01-16T03:54:45;99443.00;;;5.10
20092;BMP180;10205;49.678;6.560;2024-01-16T03:57:12;99431.00;;;5.10
20092;BMP180;10205;49.678;6.560;2024-01-16T03:59:39;99436.00;;;5.10
20092;BMP180;10205;49.678;6.560;2024-01-16T04:02:07;99439.00;;;5.10
20092;BMP180;10205;49.678;6.560;2024-01-16T04:04:34;99434.00;;;5.10
20092;BMP180;10205;49.678;6.560;2024-01-16T04:07:03;99429.00;;;5.10
20092;BMP180;10205;49.678;6.560;2024-01-16T04:09:30;99434.00;;;5.20
20092;BMP180;10205;49.678;6.560;2024-01-16T04:11:57;99422.00;;;5.20
20092;BMP180;10205;49.678;6.560;2024-01-16T04:14:25;99428.00;;;5.10
20092;BMP180;10205;49.678;6.560;2024-01-16T04:16:52;99424.00;;;5.20
20092;BMP180;10205;49.678;6.560;2024-01-16T04:19:19;99426.00;;;5.10
20092;BMP180;10205;49.678;6.560;2024-01-16T04:21:46;99425.00;;;5.10
20092;BMP180;10205;49.678;6.560;2024-01-16T04:24:14;99427.00;;;5.10
20092;BMP180;10205;49.678;6.560;2024-01-16T04:26:41;99451.00;;;5.10
20092;BMP180;10205;49.678;6.560;2024-01-16T04:29:08;99424.00;;;5.10
20092;BMP180;10205;49.678;6.560;2024-01-16T04:31:39;99428.00;;;5.10
20092;BMP180;10205;49.678;6.560;2024-01-16T04:34:07;99430.00;;;5.10
20092;BMP180;10205;49.678;6.560;2024-01-16T04:36:34;99425.00;;;5.10
20092;BMP180;10205;49.678;6.560;2024-01-16T04:39:01;99413.00;;;5.10
20092;BMP180;10205;49.678;6.560;2024-01-16T04:41:30;99419.00;;;5.10
20092;BMP180;10205;49.678;6.560;2024-01-16T04:43:57;99410.00;;;5.10
20092;BMP180;10205;49.678;6.560;2024-01-16T04:46:24;99416.00;;;5.10
20092;BMP180;10205;49.678;6.560;2024-01-16T04:48:52;99414.00;;;5.10
20092;BMP180;10205;49.678;6.560;2024-01-16T04:51:19;99407.00;;;5.00
20092;BMP180;10205;49.678;6.560;2024-01-16T04:53:46;99407.00;;;5.10
20092;BMP180;10205;49.678;6.560;2024-01-16T04:56:13;99403.00;;;5.10
20092;BMP180;10205;49.678;6.560;2024-01-16T04:58:41;99403.00;;;5.00
20092;BMP180;10205;49.678;6.560;2024-01-16T05:01:08;99403.00;;;5.00
20092;BMP180;10205;49.678;6.560;2024-01-16T05:03:35;99405.00;;;5.00
20092;BMP180;10205;49.678;6.560;2024-01-16T05:06:03;99401.00;;;5.00
20092;BMP180;10205;49.678;6.560;2024-01-16T05:08:30;99404.00;;;5.00
20092;BMP180;10205;49.678;6.560;2024-01-16T05:10:58;99393.00;;;4.90
20092;BMP180;10205;49.678;6.560;2024-01-16T05:13:25;99395.00;;;4.90
20092;BMP180;10205;49.678;6.560;2024-01-16T05:15:53;99400.00;;;4.90
20092;BMP180;10205;49.678;6.560;2024-01-16T05:18:20;99405.00;;;4.90
20092;BMP180;10205;49.678;6.560;2024-01-16T05:20:47;99413.00;;;4.90
20092;BMP180;10205;49.678;6.560;2024-01-16T05:23:14;99393.00;;;4.90
20092;BMP180;10205;49.678;6.560;2024-01-16T05:25:42;99392.00;;;4.90
20092;BMP180;10205;49.678;6.560;2024-01-16T05:28:09;99396.00;;;4.80
20092;BMP180;10205;49.678;6.560;2024-01-16T05:30:36;99392.00;;;4.80
20092;BMP180;10205;49.678;6.560;2024-01-16T05:33:05;99385.00;;;4.80
20092;BMP180;10205;49.678;6.560;2024-01-16T05:35:33;99385.00;;;4.80
20092;BMP180;10205;49.678;6.560;2024-01-16T05:38:00;99387.00;;;4.80
20092;BMP180;10205;49.678;6.560;2024-01-16T05:40:27;99388.00;;;4.80
20092;BMP180;10205;49.678;6.560;2024-01-16T05:42:54;99380.00;;;4.80
20092;BMP180;10205;49.678;6.560;2024-01-16T05:45:22;99375.00;;;4.80
20092;BMP180;10205;49.678;6.560;2024-01-16T05:47:49;99383.00;;;4.80
20092;BMP180;10205;49.678;6.560;2024-01-16T05:50:18;99392.00;;;4.80
20092;BMP180;10205;49.678;6.560;2024-01-16T05:52:45;99395.00;;;4.80
20092;BMP180;10205;49.678;6.560;2024-01-16T05:55:12;99394.00;;;4.70
20092;BMP180;10205;49.678;6.560;2024-01-16T05:57:39;99396.00;;;4.70
20092;BMP180;10205;49.678;6.560;2024-01-16T06:00:08;99395.00;;;4.70
20092;BMP180;10205;49.678;6.560;2024-01-16T06:02:35;99398.00;;;4.70
20092;BMP180;10205;49.678;6.560;2024-01-16T06:05:02;99390.00;;;4.70
20092;BMP180;10205;49.678;6.560;2024-01-16T06:07:31;99398.00;;;4.60
20092;BMP180;10205;49.678;6.560;2024-01-16T06:09:58;99381.00;;;4.60
20092;BMP180;10205;49.678;6.560;2024-01-16T06:12:25;99388.00;;;4.60
20092;BMP180;10205;49.678;6.560;2024-01-16T06:14:52;99384.00;;;4.60
20092;BMP180;10205;49.678;6.560;2024-01-16T06:17:19;99380.00;;;4.60
20092;BMP180;10205;49.678;6.560;2024-01-16T06:19:46;99389.00;;;4.60
20092;BMP180;10205;49.678;6.560;2024-01-16T06:22:13;99386.00;;;4.50
20092;BMP180;10205;49.678;6.560;2024-01-16T06:24:42;99365.00;;;4.60
20092;BMP180;10205;49.678;6.560;2024-01-16T06:27:09;99387.00;;;4.50
20092;BMP180;10205;49.678;6.560;2024-01-16T06:29:36;99383.00;;;4.50
20092;BMP180;10205;49.678;6.560;2024-01-16T06:32:03;99363.00;;;4.50
20092;BMP180;10205;49.678;6.560;2024-01-16T06:34:31;99383.00;;;4.50
20092;BMP180;10205;49.678;6.560;2024-01-16T06:36:58;99366.00;;;4.50
20092;BMP180;10205;49.678;6.560;2024-01-16T06:39:25;99383.00;;;4.50
20092;BMP180;10205;49.678;6.560;2024-01-16T06:41:53;99377.00;;;4.50
20092;BMP180;10205;49.678;6.560;2024-01-16T06:44:20;99372.00;;;4.50
20092;BMP180;10205;49.678;6.560;2024-01-16T06:46:47;99376.00;;;4.40
20092;BMP180;10205;49.678;6.560;2024-01-16T06:49:15;99377.00;;;4.40
20092;BMP180;10205;49.678;6.560;2024-01-16T06:51:42;99369.00;;;4.40
20092;BMP180;10205;49.678;6.560;2024-01-16T06:54:09;99369.00;;;4.40
20092;BMP180;10205;49.678;6.560;2024-01-16T06:56:36;99381.00;;;4.40
20092;BMP180;10205;49.678;6.560;2024-01-16T06:59:04;99361.00;;;4.40
20092;BMP180;10205;49.678;6.560;2024-01-16T07:01:31;99340.00;;;4.40
20092;BMP180;10205;49.678;6.560;2024-01-16T07:03:58;99371.00;;;4.40
20092;BMP180;10205;49.678;6.560;2024-01-16T07:06:25;99378.00;;;4.30
20092;BMP180;10205;49.678;6.560;2024-01-16T07:08:53;99374.00;;;4.30
20092;BMP180;10205;49.678;6.560;2024-01-16T07:11:20;99379.00;;;4.30
20092;BMP180;10205;49.678;6.560;2024-01-16T07:13:47;99376.00;;;4.20
20092;BMP180;10205;49.678;6.560;2024-01-16T07:16:16;99382.00;;;4.20
20092;BMP180;10205;49.678;6.560;2024-01-16T07:18:43;99396.00;;;4.20
20092;BMP180;10205;49.678;6.560;2024-01-16T07:21:17;99394.00;;;4.20
20092;BMP180;10205;49.678;6.560;2024-01-16T07:23:44;99403.00;;;4.20
20092;BMP180;10205;49.678;6.560;2024-01-16T07:26:11;99416.00;;;4.20
20092;BMP180;10205;49.678;6.560;2024-01-16T07:28:38;99404.00;;;4.20
20092;BMP180;10205;49.678;6.560;2024-01-16T07:31:06;99398.00;;;4.10
20092;BMP180;10205;49.678;6.560;2024-01-16T07:33:34;99407.00;;;4.20
20092;BMP180;10205;49.678;6.560;2024-01-16T07:36:02;99420.00;;;4.20
20092;BMP180;10205;49.678;6.560;2024-01-16T07:38:29;99402.00;;;4.10
20092;BMP180;10205;49.678;6.560;2024-01-16T07:40:56;99410.00;;;4.20
20092;BMP180;10205;49.678;6.560;2024-01-16T07:43:23;99411.00;;;4.20
20092;BMP180;10205;49.678;6.560;2024-01-16T07:45:50;99411.00;;;4.20
20092;BMP180;10205;49.678;6.560;2024-01-16T07:48:17;99416.00;;;4.10
20092;BMP180;10205;49.678;6.560;2024-01-16T07:50:46;99416.00;;;4.10
20092;BMP180;10205;49.678;6.560;2024-01-16T07:53:13;99436.00;;;4.10
20092;BMP180;10205;49.678;6.560;2024-01-16T07:55:41;99416.00;;;4.10
20092;BMP180;10205;49.678;6.560;2024-01-16T07:58:10;99416.00;;;4.10
20092;BMP180;10205;49.678;6.560;2024-01-16T08:00:37;99421.00;;;4.10
20092;BMP180;10205;49.678;6.560;2024-01-16T08:03:08;99423.00;;;4.10
20092;BMP180;10205;49.678;6.560;2024-01-16T08:05:36;99439.00;;;4.00
20092;BMP180;10205;49.678;6.560;2024-01-16T08:08:07;99431.00;;;4.00
20092;BMP180;10205;49.678;6.560;2024-01-16T08:10:35;99437.00;;;3.90
20092;BMP180;10205;49.678;6.560;2024-01-16T08:13:02;99437.00;;;3.90
20092;BMP180;10205;49.678;6.560;2024-01-16T08:15:30;99442.00;;;3.90
20092;BMP180;10205;49.678;6.560;2024-01-16T08:17:57;99448.00;;;3.80
20092;BMP180;10205;49.678;6.560;2024-01-16T08:20:24;99444.00;;;3.80
20092;BMP180;10205;49.678;6.560;2024-01-16T08:22:51;99459.00;;;3.80
20092;BMP180;10205;49.678;6.560;2024-01-16T08:25:20;99436.00;;;3.80
20092;BMP180;10205;49.678;6.560;2024-01-16T08:27:47;99453.00;;;3.80
20092;BMP180;10205;49.678;6.560;2024-01-16T08:30:15;99448.00;;;3.80
20092;BMP180;10205;49.678;6.560;2024-01-16T08:32:42;99449.00;;;3.80
20092;BMP180;10205;49.678;6.560;2024-01-16T08:35:09;99460.00;;;3.80
20092;BMP180;10205;49.678;6.560;2024-01-16T08:37:36;99452.00;;;3.80
20092;BMP180;10205;49.678;6.560;2024-01-16T08:40:05;99454.00;;;3.80
20092;BMP180;10205;49.678;6.560;2024-01-16T08:42:33;99467.00;;;3.80
20092;BMP180;10205;49.678;6.560;2024-01-16T08:45:01;99465.00;;;3.80
20092;BMP180;10205;49.678;6.560;2024-01-16T08:47:28;99461.00;;;3.80
20092;BMP180;10205;49.678;6.560;2024-01-16T08:49:55;99468.00;;;3.80
20092;BMP180;10205;49.678;6.560;2024-01-16T08:52:22;99468.00;;;3.80
20092;BMP180;10205;49.678;6.560;2024-01-16T08:54:50;99468.00;;;3.80
20092;BMP180;10205;49.678;6.560;2024-01-16T08:57:17;99461.00;;;3.80
20092;BMP180;10205;49.678;6.560;2024-01-16T08:59:45;99453.00;;;3.80
20092;BMP180;10205;49.678;6.560;2024-01-16T09:02:12;99439.00;;;3.80
20092;BMP180;10205;49.678;6.560;2024-01-16T09:04:39;99450.00;;;3.90
20092;BMP180;10205;49.678;6.560;2024-01-16T09:07:07;99450.00;;;3.90
20092;BMP180;10205;49.678;6.560;2024-01-16T09:09:34;99436.00;;;3.80
20092;BMP180;10205;49.678;6.560;2024-01-16T09:12:01;99430.00;;;3.80
20092;BMP180;10205;49.678;6.560;2024-01-16T09:14:29;99430.00;;;3.90
20092;BMP180;10205;49.678;6.560;2024-01-16T09:16:57;99425.00;;;3.80
20092;BMP180;10205;49.678;6.560;2024-01-16T09:19:24;99429.00;;;3.80
20092;BMP180;10205;49.678;6.560;2024-01-16T09:21:57;99422.00;;;3.80
20092;BMP180;10205;49.678;6.560;2024-01-16T09:24:26;99423.00;;;3.80
20092;BMP180;10205;49.678;6.560;2024-01-16T09:26:53;99419.00;;;3.80
20092;BMP180;10205;49.678;6.560;2024-01-16T09:29:20;99430.00;;;3.80
20092;BMP180;10205;49.678;6.560;2024-01-16T09:31:48;99448.00;;;3.80
20092;BMP180;10205;49.678;6.560;2024-01-16T09:34:17;99428.00;;;3.80
20092;BMP180;10205;49.678;6.560;2024-01-16T09:36:44;99427.00;;;3.80
20092;BMP180;10205;49.678;6.560;2024-01-16T09:39:12;99422.00;;;3.80
20092;BMP180;10205;49.678;6.560;2024-01-16T09:41:39;99437.00;;;3.80
20092;BMP180;10205;49.678;6.560;2024-01-16T09:44:07;99435.00;;;3.80
20092;BMP180;10205;49.678;6.560;2024-01-16T09:46:37;99427.00;;;3.80
20092;BMP180;10205;49.678;6.560;2024-01-16T09:49:06;99433.00;;;3.90
20092;BMP180;10205;49.678;6.560;2024-01-16T09:51:35;99435.00;;;3.90
20092;BMP180;10205;49.678;6.560;2024-01-16T09:54:02;99436.00;;;3.90
20092;BMP180;10205;49.678;6.560;2024-01-16T09:56:39;99428.00;;;3.90
20092;BMP180;10205;49.678;6.560;2024-01-16T09:59:09;99441.00;;;3.90
20092;BMP180;10205;49.678;6.560;2024-01-16T10:01:37;99416.00;;;4.00
20092;BMP180;10205;49.678;6.560;2024-01-16T10:04:04;99420.00;;;4.00
20092;BMP180;10205;49.678;6.560;2024-01-16T10:06:35;99410.00;;;4.00
20092;BMP180;10205;49.678;6.560;2024-01-16T10:09:04;99411.00;;;4.00
20092;BMP180;10205;49.678;6.560;2024-01-16T10:11:33;99413.00;;;4.00
20092;BMP180;10205;49.678;6.560;2024-01-16T10:14:01;99407.00;;;4.10
20092;BMP180;10205;49.678;6.560;2024-01-16T10:16:55;99409.00;;;4.10
20092;BMP180;10205;49.678;6.560;2024-01-16T10:19:28;99405.00;;;4.10
20092;BMP180;10205;49.678;6.560;2024-01-16T10:22:03;99389.00;;;4.10
20092;BMP180;10205;49.678;6.560;2024-01-16T10:24:31;99397.00;;;4.10
20092;BMP180;10205;49.678;6.560;2024-01-16T10:27:02;99401.00;;;4.10
20092;BMP180;10205;49.678;6.560;2024-01-16T10:29:30;99404.00;;;4.20
20092;BMP180;10205;49.678;6.560;2024-01-16T10:31:58;99383.00;;;4.20
20092;BMP180;10205;49.678;6.560;2024-01-16T10:34:25;99391.00;;;4.10
20092;BMP180;10205;49.678;6.560;2024-01-16T10:36:59;99356.00;;;4.20
20092;BMP180;10205;49.678;6.560;2024-01-16T10:39:28;99370.00;;;4.20
20092;BMP180;10205;49.678;6.560;2024-01-16T10:41:56;99364.00;;;4.10
20092;BMP180;10205;49.678;6.560;2024-01-16T10:44:23;99372.00;;;4.20
20092;BMP180;10205;49.678;6.560;2024-01-16T10:46:50;99371.00;;;4.20
20092;BMP180;10205;49.678;6.560;2024-01-16T10:49:17;99379.00;;;4.20
20092;BMP180;10205;49.678;6.560;2024-01-16T10:51:54;99374.00;;;4.30
20092;BMP180;10205;49.678;6.560;2024-01-16T10:54:22;99371.00;;;4.30
20092;BMP180;10205;49.678;6.560;2024-01-16T10:56:51;99358.00;;;4.30
20092;BMP180;10205;49.678;6.560;2024-01-16T10:59:25;99375.00;;;4.30
20092;BMP180;10205;49.678;6.560;2024-01-16T11:01:56;99356.00;;;4.30
20092;BMP180;10205;49.678;6.560;2024-01-16T11:04:28;99347.00;;;4.30
20092;BMP180;10205;49.678;6.560;2024-01-16T11:06:56;99278.00;;;4.30
20092;BMP180;10205;49.678;6.560;2024-01-16T11:09:23;99340.00;;;4.30
20092;BMP180;10205;49.678;6.560;2024-01-16T11:11:57;99344.00;;;4.30
20092;BMP180;10205;49.678;6.560;2024-01-16T11:14:25;99346.00;;;4.30
20092;BMP180;10205;49.678;6.560;2024-01-16T11:16:55;99337.00;;;4.40
20092;BMP180;10205;49.678;6.560;2024-01-16T11:19:24;99335.00;;;4.40
20092;BMP180;10205;49.678;6.560;2024-01-16T11:21:52;99337.00;;;4.40
20092;BMP180;10205;49.678;6.560;2024-01-16T11:24:20;99329.00;;;4.50
20092;BMP180;10205;49.678;6.560;2024-01-16T11:26:50;99318.00;;;4.40
20092;BMP180;10205;49.678;6.560;2024-01-16T11:29:36;99337.00;;;4.50
20092;BMP180;10205;49.678;6.560;2024-01-16T11:32:04;99331.00;;;4.50
20092;BMP180;10205;49.678;6.560;2024-01-16T11:34:53;99310.00;;;4.50
20092;BMP180;10205;49.678;6.560;2024-01-16T11:37:28;99328.00;;;4.50
20092;BMP180;10205;49.678;6.560;2024-01-16T11:40:24;99323.00;;;4.60
20092;BMP180;10205;49.678;6.560;2024-01-16T11:42:53;99318.00;;;4.60
20092;BMP180;10205;49.678;6.560;2024-01-16T11:45:51;99324.00;;;4.60
20092;BMP180;10205;49.678;6.560;2024-01-16T11:48:21;99313.00;;;4.60
20092;BMP180;10205;49.678;6.560;2024-01-16T11:50:48;99305.00;;;4.60
20092;BMP180;10205;49.678;6.560;2024-01-16T11:53:36;99296.00;;;4.60
20092;BMP180;10205;49.678;6.560;2024-01-16T11:56:53;99289.00;;;4.60
20092;BMP180;10205;49.678;6.560;2024-01-16T11:59:59;99293.00;;;4.60
20092;BMP180;10205;49.678;6.560;2024-01-16T12:02:38;99294.00;;;4.70
20092;BMP180;10205;49.678;6.560;2024-01-16T12:05:11;99280.00;;;4.70
20092;BMP180;10205;49.678;6.560;2024-01-16T12:07:46;99284.00;;;4.70
20092;BMP180;10205;49.678;6.560;2024-01-16T12:10:16;99251.00;;;4.70
20092;BMP180;10205;49.678;6.560;2024-01-16T12:12:43;99265.00;;;4.70
20092;BMP180;10205;49.678;6.560;2024-01-16T12:15:19;99274.00;;;4.70
20092;BMP180;10205;49.678;6.560;2024-01-16T12:17:58;99273.00;;;4.70
20092;BMP180;10205;49.678;6.560;2024-01-16T12:20:27;99278.00;;;4.70
20092;BMP180;10205;49.678;6.560;2024-01-16T12:22:57;99266.00;;;4.70
20092;BMP180;10205;49.678;6.560;2024-01-16T12:25:25;99258.00;;;4.80
20092;BMP180;10205;49.678;6.560;2024-01-16T12:27:57;99258.00;;;4.80
20092;BMP180;10205;49.678;6.560;2024-01-16T12:30:25;99243.00;;;4.80
20092;BMP180;10205;49.678;6.560;2024-01-16T12:33:05;99268.00;;;4.80
20092;BMP180;10205;49.678;6.560;2024-01-16T12:35:35;99247.00;;;4.90
20092;BMP180;10205;49.678;6.560;2024-01-16T12:38:03;99237.00;;;4.90
20092;BMP180;10205;49.678;6.560;2024-01-16T12:40:33;99238.00;;;4.90
20092;BMP180;10205;49.678;6.560;2024-01-16T12:43:00;99238.00;;;4.90
20092;BMP180;10205;49.678;6.560;2024-01-16T12:45:27;99221.00;;;4.90
20092;BMP180;10205;49.678;6.560;2024-01-16T12:47:56;99220.00;;;5.00
20092;BMP180;10205;49.678;6.560;2024-01-16T12:50:27;99217.00;;;5.00
20092;BMP180;10205;49.678;6.560;2024-01-16T12:53:04;99217.00;;;5.00
20092;BMP180;10205;49.678;6.560;2024-01-16T12:55:32;99218.00;;;5.00
20092;BMP180;10205;49.678;6.560;2024-01-16T12:58:16;99211.00;;;5.00
20092;BMP180;10205;49.678;6.560;2024-01-16T13:00:43;99214.00;;;5.00
20092;BMP180;10205;49.678;6.560;2024-01-16T13:03:19;99169.00;;;5.10
20092;BMP180;10205;49.678;6.560;2024-01-16T13:05:56;99168.00;;;5.10
20092;BMP180;10205;49.678;6.560;2024-01-16T13:08:23;99204.00;;;5.10
20092;BMP180;10205;49.678;6.560;2024-01-16T13:11:02;99205.00;;;5.10
20092;BMP180;10205;49.678;6.560;2024-01-16T13:13:30;99200.00;;;5.10
20092;BMP180;10205;49.678;6.560;2024-01-16T13:15:58;99196.00;;;5.20
20092;BMP180;10205;49.678;6.560;2024-01-16T13:18:27;99195.00;;;5.10
20092;BMP180;10205;49.678;6.560;2024-01-16T13:20:57;99215.00;;;5.20
20092;BMP180;10205;49.678;6.560;2024-01-16T13:23:26;99169.00;;;5.20
20092;BMP180;10205;49.678;6.560;2024-01-16T13:25:54;99176.00;;;5.30
20092;BMP180;10205;49.678;6.560;2024-01-16T13:28:23;99175.00;;;5.30
20092;BMP180;10205;49.678;6.560;2024-01-16T13:30:51;99186.00;;;5.20
20092;BMP180;10205;49.678;6.560;2024-01-16T13:33:19;99183.00;;;5.20
20092;BMP180;10205;49.678;6.560;2024-01-16T13:35:47;99179.00;;;5.20
20092;BMP180;10205;49.678;6.560;2024-01-16T13:38:16;99175.00;;;5.20
20092;BMP180;10205;49.678;6.560;2024-01-16T13:40:45;99168.00;;;5.20
20092;BMP180;10205;49.678;6.560;2024-01-16T13:43:12;99169.00;;;5.20
20092;BMP180;10205;49.678;6.560;2024-01-16T13:45:40;99165.00;;;5.30
20092;BMP180;10205;49.678;6.560;2024-01-16T13:48:08;99170.00;;;5.30
20092;BMP180;10205;49.678;6.560;2024-01-16T13:50:35;99172.00;;;5.30
20092;BMP180;10205;49.678;6.560;2024-01-16T13:53:03;99182.00;;;5.30
20092;BMP180;10205;49.678;6.560;2024-01-16T13:55:31;99163.00;;;5.30
20092;BMP180;10205;49.678;6.560;2024-01-16T13:57:59;99162.00;;;5.30
20092;BMP180;10205;49.678;6.560;2024-01-16T14:00:26;99164.00;;;5.30
20092;BMP180;10205;49.678;6.560;2024-01-16T14:02:53;99153.00;;;5.30
20092;BMP180;10205;49.678;6.560;2024-01-16T14:05:21;99150.00;;;5.30
20092;BMP180;10205;49.678;6.560;2024-01-16T14:07:50;99149.00;;;5.30
20092;BMP180;10205;49.678;6.560;2024-01-16T14:10:20;99160.00;;;5.30
20092;BMP180;10205;49.678;6.560;2024-01-16T14:12:50;99167.00;;;5.40
20092;BMP180;10205;49.678;6.560;2024-01-16T14:15:19;99148.00;;;5.40
20092;BMP180;10205;49.678;6.560;2024-01-16T14:17:49;99141.00;;;5.40
20092;BMP180;10205;49.678;6.560;2024-01-16T14:20:18;99165.00;;;5.40
20092;BMP180;10205;49.678;6.560;2024-01-16T14:22:49;99172.00;;;5.40
20092;BMP180;10205;49.678;6.560;2024-01-16T14:25:18;99169.00;;;5.40
20092;BMP180;10205;49.678;6.560;2024-01-16T14:27:57;99170.00;;;5.40
20092;BMP180;10205;49.678;6.560;2024-01-16T14:30:26;99159.00;;;5.40